| time (UTC) | temp C | wind direction | speed KPH | gust KPH | rain 1hr cm | rain 24hr cm | rain mn cm | humidity % | barometer mb |
| 20260901123044 | 20 | 180 | 0.0 | 4.8 | 0.00 | 0.58 | 0.58 | 96 | 1016.7 |
| 20260901122524 | 20 | 0 | 0.0 | 4.8 | 0.00 | 0.58 | 0.58 | 96 | 1016.7 |
| 20260901122026 | 20 | 0 | 0.0 | 4.8 | 0.00 | 0.58 | 0.58 | 96 | 1016.8 |
| 20260901121539 | 20 | 0 | 1.6 | 4.8 | 0.00 | 0.58 | 0.58 | 96 | 1016.8 |
| 20260901121025 | 20 | 0 | 0.0 | 4.8 | 0.00 | 0.58 | 0.58 | 96 | 1016.9 |
| 20260901120525 | 20 | 178 | 0.0 | 6.4 | 0.00 | 0.58 | 0.58 | 96 | 1016.8 |
| 20260901120053 | 20 | 0 | 0.0 | 8.0 | 0.03 | 0.58 | 0.58 | 96 | 1016.8 |
| 20260901115523 | 20 | 0 | 0.0 | 9.7 | 0.03 | 0.58 | 0.58 | 96 | 1016.8 |
| 20260901115027 | 20 | 126 | 3.2 | 9.7 | 0.03 | 0.58 | 0.58 | 96 | 1016.8 |
| 20260901114544 | 20 | 161 | 1.6 | 9.7 | 0.03 | 0.58 | 0.58 | 96 | 1016.8 |
| 20260901114023 | 20 | 169 | 3.2 | 9.7 | 0.03 | 0.58 | 0.58 | 96 | 1016.8 |
| 20260901113523 | 20 | 0 | 1.6 | 8.0 | 0.03 | 0.58 | 0.58 | 96 | 1016.8 |
| 20260901113047 | 20 | 223 | 1.6 | 8.0 | 0.03 | 0.58 | 0.58 | 96 | 1016.8 |
| 20260901112522 | 20 | 0 | 1.6 | 8.0 | 0.03 | 0.58 | 0.58 | 96 | 1016.7 |
| 20260901112022 | 20 | 185 | 1.6 | 4.8 | 0.03 | 0.58 | 0.58 | 96 | 1016.6 |
| 20260901111548 | 20 | 0 | 0.0 | 3.2 | 0.03 | 0.58 | 0.58 | 96 | 1016.8 |
| 20260901111026 | 20 | 0 | 0.0 | 4.8 | 0.03 | 0.58 | 0.58 | 96 | 1016.8 |
| 20260901110525 | 20 | 176 | 0.0 | 4.8 | 0.03 | 0.58 | 0.58 | 96 | 1016.9 |
| 20260901110050 | 20 | 0 | 0.0 | 6.4 | 0.03 | 0.56 | 0.56 | 96 | 1016.7 |
| 20260901105527 | 20 | 0 | 0.0 | 6.4 | 0.03 | 0.56 | 0.56 | 96 | 1016.6 |
| 20260901105027 | 20 | 0 | 1.6 | 6.4 | 0.03 | 0.56 | 0.56 | 96 | 1016.5 |
| 20260901104545 | 20 | 0 | 0.0 | 4.8 | 0.03 | 0.56 | 0.56 | 96 | 1016.6 |
| 20260901104027 | 20 | 0 | 0.0 | 4.8 | 0.03 | 0.56 | 0.56 | 96 | 1016.7 |
| 20260901103530 | 20 | 167 | 0.0 | 6.4 | 0.03 | 0.56 | 0.56 | 96 | 1016.5 |
| 20260901103042 | 20 | 206 | 1.6 | 6.4 | 0.03 | 0.56 | 0.56 | 96 | 1016.4 |
| 20260901102525 | 20 | 159 | 0.0 | 4.8 | 0.03 | 0.56 | 0.56 | 96 | 1016.6 |
| 20260901102023 | 20 | 236 | 0.0 | 4.8 | 0.03 | 0.56 | 0.56 | 95 | 1016.5 |
| 20260901101546 | 20 | 165 | 0.0 | 3.2 | 0.05 | 0.56 | 0.56 | 95 | 1016.4 |
| 20260901101024 | 20 | 0 | 0.0 | 1.6 | 0.05 | 0.56 | 0.56 | 95 | 1016.4 |
| 20260901100524 | 20 | 178 | 0.0 | 1.6 | 0.03 | 0.53 | 0.53 | 95 | 1016.5 |
| 20260901100047 | 20 | 167 | 0.0 | 3.2 | 0.03 | 0.53 | 0.53 | 95 | 1016.5 |
| 20260901095520 | 20 | 184 | 0.0 | 3.2 | 0.03 | 0.53 | 0.53 | 95 | 1016.5 |
| 20260901095024 | 20 | 0 | 0.0 | 3.2 | 0.03 | 0.53 | 0.53 | 95 | 1016.5 |
| 20260901094550 | 20 | 0 | 0.0 | 4.8 | 0.03 | 0.53 | 0.53 | 95 | 1016.5 |
| 20260901094026 | 20 | 226 | 0.0 | 4.8 | 0.03 | 0.53 | 0.53 | 95 | 1016.3 |
| 20260901093527 | 20 | 161 | 0.0 | 6.4 | 0.05 | 0.53 | 0.53 | 95 | 1016.5 |
| 20260901093043 | 20 | 178 | 0.0 | 6.4 | 0.05 | 0.53 | 0.53 | 95 | 1016.5 |
| 20260901092524 | 20 | 158 | 0.0 | 3.2 | 0.10 | 0.53 | 0.53 | 95 | 1016.7 |
| 20260901092025 | 20 | 0 | 0.0 | 3.2 | 0.13 | 0.53 | 0.53 | 95 | 1016.6 |
| 20260901091540 | 20 | 0 | 0.0 | 1.6 | 0.13 | 0.51 | 0.51 | 95 | 1016.7 |
| 20260901091024 | 20 | 0 | 0.0 | 1.6 | 0.15 | 0.51 | 0.51 | 95 | 1016.7 |
| 20260901090525 | 20 | 0 | 0.0 | 0.0 | 0.15 | 0.51 | 0.51 | 94 | 1016.6 |
| 20260901090044 | 20 | 0 | 0.0 | 1.6 | 0.15 | 0.51 | 0.51 | 94 | 1016.8 |
| 20260901085524 | 20 | 0 | 0.0 | 1.6 | 0.18 | 0.51 | 0.51 | 94 | 1017.0 |
| 20260901085024 | 20 | 0 | 0.0 | 1.6 | 0.18 | 0.51 | 0.51 | 95 | 1017.1 |
| 20260901084547 | 20 | 0 | 0.0 | 0.0 | 0.20 | 0.51 | 0.51 | 94 | 1017.1 |
| 20260901084025 | 20 | 0 | 0.0 | 0.0 | 0.20 | 0.51 | 0.51 | 94 | 1017.1 |
| 20260901083525 | 20 | 0 | 0.0 | 0.0 | 0.18 | 0.48 | 0.48 | 94 | 1017.1 |
| 20260901083041 | 20 | 0 | 0.0 | 0.0 | 0.15 | 0.46 | 0.46 | 94 | 1017.2 |
| 20260901082523 | 20 | 0 | 0.0 | 1.6 | 0.15 | 0.43 | 0.43 | 94 | 1017.2 |
| 20260901082025 | 20 | 0 | 0.0 | 1.6 | 0.18 | 0.41 | 0.41 | 94 | 1017.2 |
| 20260901081547 | 20 | 0 | 0.0 | 1.6 | 0.20 | 0.38 | 0.38 | 94 | 1017.2 |
| 20260901081025 | 20 | 0 | 0.0 | 0.0 | 0.23 | 0.36 | 0.36 | 94 | 1017.3 |
| 20260901080525 | 20 | 0 | 0.0 | 0.0 | 0.23 | 0.36 | 0.36 | 94 | 1017.2 |
| 20260901080046 | 20 | 0 | 0.0 | 1.6 | 0.23 | 0.33 | 0.33 | 94 | 1017.2 |
| 20260901075525 | 20 | 0 | 0.0 | 1.6 | 0.23 | 0.33 | 0.33 | 94 | 1017.2 |
| 20260901075023 | 20 | 0 | 0.0 | 1.6 | 0.25 | 0.33 | 0.33 | 94 | 1017.3 |
| 20260901074544 | 20 | 0 | 0.0 | 1.6 | 0.23 | 0.30 | 0.30 | 94 | 1017.4 |
| 20260901074024 | 20 | 0 | 0.0 | 1.6 | 0.25 | 0.30 | 0.30 | 94 | 1017.5 |
| 20260901073524 | 20 | 0 | 0.0 | 3.2 | 0.28 | 0.30 | 0.30 | 94 | 1017.5 |
| 20260901073043 | 20 | 0 | 0.0 | 3.2 | 0.25 | 0.28 | 0.28 | 93 | 1017.4 |
| 20260901072524 | 20 | 165 | 0.0 | 8.0 | 0.25 | 0.28 | 0.28 | 94 | 1017.4 |
| 20260901072024 | 20 | 0 | 1.6 | 8.0 | 0.23 | 0.23 | 0.23 | 94 | 1017.4 |
| 20260901071546 | 20 | 190 | 0.0 | 4.8 | 0.18 | 0.18 | 0.18 | 94 | 1017.4 |
| 20260901071025 | 20 | 200 | 0.0 | 6.4 | 0.13 | 0.13 | 0.13 | 94 | 1017.3 |
| 20260901070525 | 20 | 0 | 0.0 | 6.4 | 0.10 | 0.10 | 0.10 | 94 | 1017.4 |
| 20260901070048 | 20 | 182 | 0.0 | 4.8 | 0.10 | 0.10 | 0.10 | 94 | 1017.5 |
| 20260901065525 | 21 | 0 | 0.0 | 8.0 | 0.10 | 0.10 | 0.10 | 93 | 1017.5 |
| 20260901065024 | 21 | 169 | 3.2 | 8.0 | 0.08 | 0.08 | 0.08 | 93 | 1017.5 |
| 20260901064544 | 20 | 0 | 0.0 | 6.4 | 0.05 | 0.05 | 0.05 | 93 | 1017.5 |
| 20260901064026 | 20 | 0 | 0.0 | 6.4 | 0.05 | 0.05 | 0.05 | 93 | 1017.5 |
| 20260901063522 | 20 | 178 | 0.0 | 6.4 | 0.03 | 0.03 | 0.03 | 93 | 1017.5 |
| 20260901063050 | 20 | 0 | 0.0 | 0.0 | 0.03 | 0.03 | 0.03 | 93 | 1017.6 |
| 20260901062522 | 20 | 0 | 0.0 | 0.0 | 0.03 | 0.03 | 0.03 | 93 | 1017.8 |
| 20260901062024 | 20 | 0 | 0.0 | 0.0 | 0.00 | 0.00 | 0.00 | 93 | 1017.8 |
| 20260901061549 | 20 | 0 | 0.0 | 0.0 | 0.00 | 0.00 | 0.00 | 92 | 1017.8 |
| 20260901061025 | 20 | 0 | 0.0 | 0.0 | 0.00 | 0.00 | 0.00 | 92 | 1017.7 |
| 20260901060524 | 20 | 0 | 0.0 | 0.0 | 0.00 | 0.00 | 0.00 | 92 | 1017.8 |
| 20260901060059 | 20 | 0 | 0.0 | 0.0 | 0.00 | 0.00 | 0.00 | 92 | 1017.7 |
| 20260901055525 | 20 | 0 | 0.0 | 0.0 | 0.00 | 0.00 | 0.00 | 92 | 1017.8 |
| 20260901055025 | 20 | 0 | 0.0 | 0.0 | 0.00 | 0.00 | 0.00 | 92 | 1017.8 |
| 20260901054545 | 20 | 0 | 0.0 | 0.0 | 0.00 | 0.00 | 0.00 | 92 | 1017.9 |
| 20260901054025 | 20 | 0 | 0.0 | 0.0 | 0.00 | 0.00 | 0.00 | 92 | 1017.9 |
| 20260901053526 | 20 | 0 | 0.0 | 0.0 | 0.00 | 0.00 | 0.00 | 92 | 1018.0 |
| 20260901053106 | 20 | 0 | 0.0 | 0.0 | 0.00 | 0.00 | 0.00 | 91 | 1018.0 |
| 20260901052523 | 20 | 0 | 0.0 | 0.0 | 0.00 | 0.00 | 0.00 | 91 | 1017.9 |
| 20260901052023 | 21 | 0 | 0.0 | 0.0 | 0.00 | 0.00 | 0.00 | 91 | 1018.0 |
| 20260901051601 | 21 | 0 | 0.0 | 0.0 | 0.00 | 0.00 | 0.00 | 91 | 1018.0 |
| 20260901051023 | 21 | 0 | 0.0 | 1.6 | 0.00 | 0.00 | 0.00 | 91 | 1018.1 |
| 20260901050526 | 21 | 0 | 0.0 | 1.6 | 0.00 | 0.00 | 0.00 | 90 | 1018.1 |
| 20260901050043 | 21 | 0 | 0.0 | 0.0 | 0.00 | 0.00 | 0.00 | 90 | 1018.1 |
| 20260901045522 | 21 | 0 | 0.0 | 0.0 | 0.00 | 0.00 | 0.00 | 90 | 1018.1 |
| 20260901045027 | 21 | 0 | 0.0 | 0.0 | 0.00 | 0.00 | 0.00 | 90 | 1018.3 |
| 20260901044558 | 21 | 0 | 0.0 | 1.6 | 0.00 | 0.00 | 0.00 | 90 | 1018.3 |
| 20260901044023 | 21 | 0 | 0.0 | 1.6 | 0.00 | 0.00 | 0.00 | 89 | 1018.3 |
| 20260901043527 | 21 | 0 | 0.0 | 1.6 | 0.00 | 0.00 | 0.00 | 89 | 1018.4 |
| 20260901043051 | 21 | 0 | 0.0 | 1.6 | 0.00 | 0.00 | 0.00 | 89 | 1018.4 |
| 20260901042524 | 21 | 0 | 0.0 | 3.2 | 0.00 | 0.00 | 0.00 | 89 | 1018.4 |
| 20260901042023 | 21 | 0 | 0.0 | 3.2 | 0.00 | 0.00 | 0.00 | 89 | 1018.3 |
| 20260901041549 | 21 | 192 | 0.0 | 3.2 | 0.00 | 0.00 | 0.00 | 89 | 1018.3 |
| 20260901041024 | 21 | 0 | 0.0 | 3.2 | 0.00 | 0.00 | 0.00 | 89 | 1018.2 |
| 20260901040524 | 21 | 0 | 0.0 | 1.6 | 0.00 | 0.00 | 0.00 | 88 | 1018.2 |
| 20260901040104 | 21 | 0 | 0.0 | 6.4 | 0.00 | 0.00 | 0.00 | 88 | 1018.2 |
| 20260901035526 | 21 | 0 | 0.0 | 6.4 | 0.00 | 0.03 | 0.00 | 88 | 1018.3 |
| 20260901035022 | 21 | 0 | 0.0 | 6.4 | 0.00 | 0.03 | 0.00 | 88 | 1018.3 |
| 20260901034559 | 21 | 0 | 0.0 | 6.4 | 0.00 | 0.03 | 0.00 | 88 | 1018.3 |
| 20260901034025 | 21 | 0 | 0.0 | 3.2 | 0.00 | 0.03 | 0.00 | 87 | 1018.4 |
| 20260901033524 | 21 | 208 | 0.0 | 3.2 | 0.00 | 0.03 | 0.00 | 87 | 1018.5 |
| 20260901033044 | 21 | 214 | 0.0 | 1.6 | 0.00 | 0.03 | 0.00 | 87 | 1018.6 |
| 20260901032524 | 21 | 0 | 0.0 | 1.6 | 0.00 | 0.03 | 0.00 | 87 | 1018.6 |
| 20260901032024 | 21 | 244 | 0.0 | 3.2 | 0.00 | 0.03 | 0.00 | 86 | 1018.7 |
| 20260901031544 | 21 | 240 | 0.0 | 8.0 | 0.00 | 0.03 | 0.00 | 86 | 1018.8 |
| 20260901031030 | 21 | 0 | 1.6 | 8.0 | 0.00 | 0.03 | 0.00 | 86 | 1018.7 |
| 20260901030523 | 21 | 196 | 0.0 | 11.3 | 0.00 | 0.03 | 0.00 | 85 | 1018.8 |
| 20260901030041 | 21 | 178 | 0.0 | 12.9 | 0.00 | 0.03 | 0.00 | 85 | 1018.8 |
| 20260901025524 | 21 | 178 | 3.2 | 12.9 | 0.00 | 0.03 | 0.00 | 85 | 1018.7 |
| 20260901025024 | 21 | 0 | 0.0 | 9.7 | 0.00 | 0.03 | 0.00 | 85 | 1018.7 |
| 20260901024550 | 21 | 153 | 0.0 | 8.0 | 0.00 | 0.03 | 0.00 | 85 | 1018.6 |
| 20260901024028 | 21 | 0 | 0.0 | 8.0 | 0.00 | 0.03 | 0.00 | 85 | 1018.6 |
| 20260901023524 | 21 | 200 | 1.6 | 8.0 | 0.00 | 0.03 | 0.00 | 85 | 1018.7 |
| 20260901023059 | 21 | 0 | 1.6 | 8.0 | 0.00 | 0.03 | 0.00 | 85 | 1018.7 |
| 20260901022525 | 21 | 188 | 1.6 | 8.0 | 0.00 | 0.03 | 0.00 | 85 | 1018.6 |
| 20260901022025 | 21 | 0 | 0.0 | 8.0 | 0.00 | 0.03 | 0.00 | 85 | 1018.7 |
| 20260901021551 | 21 | 160 | 1.6 | 6.4 | 0.00 | 0.03 | 0.00 | 84 | 1018.6 |
| 20260901021025 | 21 | 167 | 0.0 | 6.4 | 0.00 | 0.03 | 0.00 | 84 | 1018.7 |
| 20260901020525 | 21 | 227 | 0.0 | 8.0 | 0.00 | 0.03 | 0.00 | 84 | 1018.7 |
| 20260901020045 | 21 | 167 | 1.6 | 8.0 | 0.00 | 0.03 | 0.00 | 84 | 1018.8 |
| 20260901015526 | 21 | 206 | 1.6 | 8.0 | 0.00 | 0.05 | 0.00 | 84 | 1018.9 |
| 20260901015026 | 21 | 159 | 1.6 | 6.4 | 0.00 | 0.05 | 0.00 | 84 | 1018.9 |
| 20260901014552 | 21 | 192 | 1.6 | 6.4 | 0.00 | 0.05 | 0.00 | 84 | 1018.9 |
| 20260901014023 | 21 | 229 | 1.6 | 6.4 | 0.00 | 0.05 | 0.00 | 84 | 1019.0 |
| 20260901013524 | 21 | 163 | 0.0 | 6.4 | 0.00 | 0.05 | 0.00 | 84 | 1019.1 |
| 20260901013049 | 21 | 203 | 0.0 | 3.2 | 0.00 | 0.05 | 0.00 | 84 | 1019.2 |
| 20260901012525 | 21 | 0 | 0.0 | 4.8 | 0.00 | 0.05 | 0.00 | 84 | 1018.9 |
| 20260901012024 | 21 | 184 | 0.0 | 4.8 | 0.00 | 0.05 | 0.00 | 83 | 1019.1 |
| 20260901011545 | 21 | 0 | 0.0 | 1.6 | 0.00 | 0.05 | 0.00 | 83 | 1019.1 |
| 20260901011026 | 21 | 0 | 0.0 | 4.8 | 0.00 | 0.05 | 0.00 | 83 | 1019.0 |
| 20260901010526 | 21 | 0 | 0.0 | 4.8 | 0.00 | 0.05 | 0.00 | 83 | 1019.0 |
| 20260901010045 | 21 | 183 | 1.6 | 4.8 | 0.00 | 0.05 | 0.00 | 83 | 1018.9 |
| 20260901005530 | 21 | 0 | 0.0 | 3.2 | 0.00 | 0.05 | 0.00 | 83 | 1019.0 |
| 20260901005025 | 21 | 200 | 0.0 | 4.8 | 0.00 | 0.05 | 0.00 | 83 | 1019.0 |
| 20260901004546 | 21 | 200 | 0.0 | 6.4 | 0.00 | 0.05 | 0.00 | 83 | 1018.9 |
| 20260901004022 | 21 | 0 | 0.0 | 6.4 | 0.00 | 0.05 | 0.00 | 82 | 1018.9 |
| 20260901003521 | 21 | 0 | 0.0 | 4.8 | 0.00 | 0.05 | 0.00 | 82 | 1018.9 |
| 20260901003051 | 21 | 0 | 0.0 | 6.4 | 0.00 | 0.05 | 0.00 | 82 | 1018.9 |
| 20260901002526 | 21 | 161 | 0.0 | 6.4 | 0.00 | 0.05 | 0.00 | 82 | 1018.9 |
| 20260901002026 | 21 | 196 | 1.6 | 8.0 | 0.00 | 0.05 | 0.00 | 81 | 1018.9 |
| 20260901001544 | 21 | 165 | 0.0 | 8.0 | 0.00 | 0.05 | 0.00 | 81 | 1018.8 |
| 20260901001025 | 21 | 150 | 1.6 | 8.0 | 0.00 | 0.05 | 0.00 | 81 | 1018.7 |
| 20260901000525 | 21 | 255 | 1.6 | 9.7 | 0.00 | 0.05 | 0.00 | 81 | 1018.7 |
| 20260901000045 | 21 | 198 | 0.0 | 11.3 | 0.00 | 0.05 | 0.00 | 80 | 1018.8 |
| 20260831235525 | 21 | 186 | 4.8 | 11.3 | 0.00 | 0.05 | 0.00 | 80 | 1018.8 |
| 20260831235040 | 21 | 216 | 1.6 | 9.7 | 0.00 | 0.05 | 0.00 | 80 | 1018.8 |
| 20260831234544 | 21 | 237 | 0.0 | 8.0 | 0.00 | 0.05 | 0.00 | 80 | 1019.0 |
| 20260831234026 | 21 | 0 | 3.2 | 8.0 | 0.00 | 0.05 | 0.00 | 80 | 1019.0 |
| 20260831233524 | 22 | 178 | 1.6 | 8.0 | 0.00 | 0.05 | 0.00 | 79 | 1019.1 |
| 20260831233050 | 22 | 202 | 1.6 | 8.0 | 0.00 | 0.05 | 0.00 | 79 | 1019.1 |
| 20260831232524 | 22 | 182 | 1.6 | 8.0 | 0.00 | 0.05 | 0.00 | 79 | 1019.2 |
| 20260831232023 | 22 | 190 | 1.6 | 8.0 | 0.00 | 0.05 | 0.00 | 78 | 1019.3 |
| 20260831231546 | 22 | 164 | 3.2 | 8.0 | 0.00 | 0.05 | 0.00 | 78 | 1019.2 |
| 20260831231024 | 22 | 0 | 1.6 | 4.8 | 0.00 | 0.05 | 0.00 | 78 | 1019.2 |
| 20260831230529 | 22 | 0 | 0.0 | 3.2 | 0.00 | 0.05 | 0.00 | 78 | 1019.2 |
| 20260831230046 | 22 | 0 | 0.0 | 9.7 | 0.00 | 0.05 | 0.00 | 78 | 1019.2 |
| 20260831225524 | 22 | 119 | 0.0 | 9.7 | 0.00 | 0.05 | 0.00 | 78 | 1019.1 |
| 20260831225023 | 22 | 172 | 3.2 | 11.3 | 0.00 | 0.05 | 0.00 | 77 | 1019.3 |
| 20260831224550 | 22 | 166 | 4.8 | 11.3 | 0.00 | 0.05 | 0.00 | 76 | 1019.3 |
| 20260831224023 | 22 | 273 | 1.6 | 8.0 | 0.00 | 0.05 | 0.00 | 74 | 1019.3 |
| 20260831223530 | 22 | 132 | 1.6 | 8.0 | 0.00 | 0.05 | 0.00 | 74 | 1019.4 |
| 20260831223046 | 22 | 0 | 3.2 | 11.3 | 0.00 | 0.05 | 0.00 | 72 | 1019.3 |
| 20260831222526 | 22 | 175 | 0.0 | 11.3 | 0.00 | 0.05 | 0.00 | 72 | 1019.2 |
| 20260831222025 | 22 | 226 | 4.8 | 11.3 | 0.00 | 0.05 | 0.00 | 72 | 1019.1 |
| 20260831221555 | 22 | 178 | 1.6 | 8.0 | 0.00 | 0.05 | 0.00 | 73 | 1019.1 |
| 20260831221028 | 22 | 198 | 0.0 | 4.8 | 0.00 | 0.05 | 0.00 | 73 | 1019.2 |
| 20260831220526 | 22 | 161 | 1.6 | 4.8 | 0.00 | 0.05 | 0.00 | 73 | 1019.2 |
| 20260831220055 | 22 | 137 | 0.0 | 1.6 | 0.00 | 0.05 | 0.00 | 74 | 1019.4 |
| 20260831215527 | 22 | 152 | 0.0 | 6.4 | 0.00 | 0.05 | 0.00 | 74 | 1019.4 |
| 20260831215026 | 22 | 0 | 0.0 | 6.4 | 0.00 | 0.05 | 0.00 | 74 | 1019.3 |
| 20260831214541 | 23 | 242 | 0.0 | 6.4 | 0.00 | 0.05 | 0.00 | 73 | 1019.3 |
| 20260831214026 | 23 | 207 | 1.6 | 4.8 | 0.00 | 0.05 | 0.00 | 73 | 1019.3 |
| 20260831213526 | 23 | 200 | 0.0 | 3.2 | 0.00 | 0.05 | 0.00 | 73 | 1019.2 |
| 20260831213047 | 23 | 0 | 0.0 | 6.4 | 0.00 | 0.05 | 0.00 | 73 | 1019.3 |
| 20260831212524 | 23 | 0 | 0.0 | 6.4 | 0.00 | 0.05 | 0.00 | 73 | 1019.4 |
| 20260831212026 | 23 | 159 | 1.6 | 4.8 | 0.00 | 0.05 | 0.00 | 73 | 1019.2 |
| 20260831211543 | 23 | 0 | 0.0 | 14.5 | 0.00 | 0.05 | 0.00 | 75 | 1019.3 |
| 20260831211026 | 23 | 218 | 1.6 | 14.5 | 0.00 | 0.05 | 0.00 | 75 | 1019.3 |
| 20260831210524 | 23 | 184 | 1.6 | 11.3 | 0.00 | 0.05 | 0.00 | 76 | 1019.3 |
| 20260831210041 | 23 | 196 | 3.2 | 16.1 | 0.00 | 0.05 | 0.00 | 76 | 1019.3 |
| 20260831205527 | 23 | 198 | 8.0 | 16.1 | 0.00 | 0.05 | 0.00 | 75 | 1019.3 |
| 20260831205028 | 23 | 178 | 4.8 | 14.5 | 0.00 | 0.05 | 0.00 | 74 | 1019.3 |
| 20260831204554 | 24 | 217 | 3.2 | 11.3 | 0.00 | 0.05 | 0.00 | 74 | 1019.2 |
| 20260831204027 | 24 | 0 | 3.2 | 9.7 | 0.00 | 0.05 | 0.00 | 73 | 1019.3 |
| 20260831203525 | 24 | 94 | 3.2 | 14.5 | 0.00 | 0.05 | 0.00 | 72 | 1019.2 |
| 20260831203045 | 24 | 77 | 1.6 | 14.5 | 0.00 | 0.05 | 0.00 | 72 | 1019.2 |
| 20260831202527 | 25 | 196 | 1.6 | 16.1 | 0.00 | 0.05 | 0.00 | 70 | 1019.3 |
| 20260831202025 | 25 | 178 | 8.0 | 16.1 | 0.00 | 0.05 | 0.00 | 69 | 1019.2 |
| 20260831201540 | 25 | 175 | 4.8 | 16.1 | 0.00 | 0.05 | 0.00 | 68 | 1019.2 |
| 20260831201023 | 25 | 160 | 8.0 | 16.1 | 0.00 | 0.05 | 0.00 | 68 | 1019.5 |
| 20260831200525 | 25 | 136 | 3.2 | 11.3 | 0.00 | 0.05 | 0.00 | 68 | 1019.5 |
| 20260831200054 | 25 | 237 | 1.6 | 11.3 | 0.00 | 0.05 | 0.00 | 69 | 1019.6 |
| 20260831195523 | 25 | 242 | 4.8 | 12.9 | 0.00 | 0.05 | 0.00 | 68 | 1019.4 |
| 20260831195023 | 25 | 212 | 3.2 | 14.5 | 0.00 | 0.05 | 0.00 | 69 | 1019.5 |
| 20260831194543 | 25 | 192 | 6.4 | 14.5 | 0.00 | 0.05 | 0.00 | 69 | 1019.6 |
| 20260831194025 | 25 | 209 | 6.4 | 14.5 | 0.00 | 0.05 | 0.00 | 68 | 1019.7 |
| 20260831193524 | 25 | 205 | 1.6 | 8.0 | 0.00 | 0.05 | 0.00 | 70 | 1019.7 |
| 20260831193047 | 25 | 194 | 1.6 | 8.0 | 0.00 | 0.05 | 0.00 | 70 | 1019.8 |
| 20260831192525 | 25 | 260 | 1.6 | 9.7 | 0.00 | 0.05 | 0.00 | 69 | 1019.7 |
| 20260831192026 | 25 | 0 | 3.2 | 9.7 | 0.00 | 0.05 | 0.00 | 69 | 1019.8 |
| 20260831191545 | 25 | 173 | 3.2 | 8.0 | 0.00 | 0.05 | 0.00 | 68 | 1019.8 |
| 20260831191025 | 25 | 0 | 0.0 | 8.0 | 0.00 | 0.05 | 0.00 | 69 | 1019.8 |
| 20260831190525 | 25 | 128 | 1.6 | 8.0 | 0.00 | 0.05 | 0.00 | 70 | 1019.9 |
| 20260831185524 | 25 | 133 | 0.0 | 8.0 | 0.00 | 0.05 | 0.00 | 70 | 1019.9 |
| 20260831185025 | 25 | 0 | 3.2 | 9.7 | 0.00 | 0.05 | 0.00 | 68 | 1020.1 |
| 20260831184543 | 25 | 200 | 3.2 | 9.7 | 0.00 | 0.05 | 0.00 | 68 | 1020.2 |
| 20260831184022 | 25 | 180 | 3.2 | 11.3 | 0.00 | 0.05 | 0.00 | 67 | 1020.2 |
| 20260831183524 | 25 | 129 | 3.2 | 11.3 | 0.00 | 0.05 | 0.00 | 68 | 1020.2 |
| 20260831183046 | 25 | 195 | 3.2 | 11.3 | 0.00 | 0.05 | 0.00 | 70 | 1020.2 |
| 20260831182529 | 24 | 260 | 1.6 | 8.0 | 0.00 | 0.05 | 0.00 | 70 | 1020.3 |
| 20260831182027 | 24 | 167 | 3.2 | 14.5 | 0.00 | 0.05 | 0.00 | 69 | 1020.3 |
| 20260831181544 | 24 | 184 | 4.8 | 14.5 | 0.00 | 0.05 | 0.00 | 68 | 1020.4 |
| 20260831181024 | 24 | 233 | 3.2 | 12.9 | 0.00 | 0.05 | 0.00 | 67 | 1020.3 |
| 20260831180528 | 24 | 187 | 4.8 | 14.5 | 0.00 | 0.05 | 0.00 | 66 | 1020.1 |
| 20260831180047 | 25 | 194 | 6.4 | 20.9 | 0.00 | 0.05 | 0.00 | 64 | 1020.3 |
| 20260831175522 | 25 | 175 | 4.8 | 20.9 | 0.00 | 0.05 | 0.00 | 64 | 1020.3 |
| 20260831175023 | 25 | 217 | 8.0 | 19.3 | 0.00 | 0.05 | 0.00 | 64 | 1020.3 |
| 20260831174546 | 26 | 192 | 8.0 | 14.5 | 0.00 | 0.05 | 0.00 | 65 | 1020.3 |
| 20260831174027 | 26 | 127 | 1.6 | 9.7 | 0.00 | 0.05 | 0.00 | 65 | 1020.4 |
| 20260831173526 | 26 | 184 | 1.6 | 8.0 | 0.00 | 0.05 | 0.00 | 64 | 1020.4 |
| 20260831173046 | 25 | 138 | 3.2 | 9.7 | 0.00 | 0.05 | 0.00 | 66 | 1020.4 |
| 20260831172524 | 25 | 155 | 0.0 | 14.5 | 0.00 | 0.05 | 0.00 | 68 | 1020.4 |
| 20260831172024 | 25 | 96 | 4.8 | 17.7 | 0.00 | 0.05 | 0.00 | 68 | 1020.4 |
| 20260831171545 | 25 | 207 | 6.4 | 17.7 | 0.00 | 0.05 | 0.00 | 67 | 1020.4 |
| 20260831171024 | 25 | 160 | 3.2 | 14.5 | 0.00 | 0.05 | 0.00 | 68 | 1020.4 |
| 20260831170526 | 25 | 201 | 4.8 | 19.3 | 0.00 | 0.05 | 0.00 | 66 | 1020.3 |
| 20260831170043 | 25 | 189 | 3.2 | 19.3 | 0.00 | 0.05 | 0.00 | 66 | 1020.5 |
| 20260831165524 | 25 | 216 | 6.4 | 14.5 | 0.00 | 0.05 | 0.00 | 63 | 1020.5 |
| 20260831165028 | 26 | 171 | 3.2 | 12.9 | 0.00 | 0.05 | 0.00 | 64 | 1020.4 |
| 20260831164558 | 26 | 303 | 4.8 | 12.9 | 0.00 | 0.05 | 0.00 | 62 | 1020.5 |
| 20260831164023 | 26 | 170 | 1.6 | 17.7 | 0.00 | 0.05 | 0.00 | 61 | 1020.6 |
| 20260831163526 | 26 | 294 | 3.2 | 17.7 | 0.00 | 0.05 | 0.00 | 59 | 1020.6 |
| 20260831163045 | 26 | 149 | 3.2 | 16.1 | 0.00 | 0.05 | 0.00 | 60 | 1020.5 |
| 20260831162524 | 27 | 180 | 4.8 | 16.1 | 0.00 | 0.05 | 0.00 | 57 | 1020.5 |
| 20260831162025 | 27 | 128 | 1.6 | 8.0 | 0.00 | 0.05 | 0.00 | 55 | 1020.6 |
| 20260831161546 | 27 | 0 | 0.0 | 9.7 | 0.00 | 0.05 | 0.00 | 55 | 1020.6 |
| 20260831161024 | 27 | 57 | 0.0 | 12.9 | 0.00 | 0.05 | 0.00 | 56 | 1020.6 |
| 20260831160523 | 27 | 15 | 4.8 | 14.5 | 0.00 | 0.05 | 0.00 | 60 | 1020.6 |
| 20260831160047 | 27 | 199 | 3.2 | 14.5 | 0.00 | 0.05 | 0.00 | 58 | 1020.6 |
| 20260831155524 | 27 | 198 | 0.0 | 3.2 | 0.00 | 0.05 | 0.00 | 56 | 1020.6 |
| 20260831155023 | 27 | 157 | 0.0 | 8.0 | 0.00 | 0.05 | 0.00 | 56 | 1020.6 |
| 20260831154606 | 27 | 225 | 1.6 | 8.0 | 0.00 | 0.05 | 0.00 | 59 | 1020.7 |
| 20260831154028 | 27 | 157 | 1.6 | 8.0 | 0.00 | 0.05 | 0.00 | 64 | 1020.6 |
| 20260831153527 | 26 | 0 | 0.0 | 9.7 | 0.00 | 0.05 | 0.00 | 63 | 1020.6 |
| 20260831153047 | 26 | 174 | 1.6 | 9.7 | 0.00 | 0.05 | 0.00 | 64 | 1020.7 |
| 20260831152524 | 26 | 171 | 1.6 | 9.7 | 0.00 | 0.05 | 0.00 | 64 | 1020.6 |
| 20260831152025 | 26 | 151 | 1.6 | 6.4 | 0.00 | 0.05 | 0.00 | 61 | 1020.6 |
| 20260831151553 | 26 | 118 | 1.6 | 11.3 | 0.00 | 0.05 | 0.00 | 62 | 1020.7 |
| 20260831151023 | 26 | 240 | 3.2 | 11.3 | 0.00 | 0.05 | 0.00 | 60 | 1020.5 |
| 20260831150524 | 26 | 50 | 0.0 | 4.8 | 0.00 | 0.05 | 0.00 | 61 | 1020.7 |
| 20260831150047 | 26 | 182 | 0.0 | 4.8 | 0.00 | 0.05 | 0.00 | 60 | 1020.8 |
| 20260831145523 | 26 | 148 | 1.6 | 9.7 | 0.00 | 0.05 | 0.00 | 61 | 1020.7 |
| 20260831145026 | 26 | 150 | 3.2 | 9.7 | 0.00 | 0.05 | 0.00 | 62 | 1020.7 |
| 20260831144541 | 26 | 69 | 1.6 | 8.0 | 0.00 | 0.05 | 0.00 | 61 | 1020.8 |
| 20260831144026 | 25 | 326 | 1.6 | 8.0 | 0.00 | 0.05 | 0.00 | 64 | 1020.8 |
| 20260831143528 | 25 | 142 | 0.0 | 8.0 | 0.00 | 0.05 | 0.00 | 64 | 1020.7 |
| 20260831143055 | 25 | 0 | 0.0 | 8.0 | 0.00 | 0.05 | 0.00 | 66 | 1020.6 |
| 20260831142524 | 25 | 128 | 1.6 | 6.4 | 0.00 | 0.05 | 0.00 | 66 | 1020.6 |
| 20260831142026 | 24 | 0 | 0.0 | 6.4 | 0.00 | 0.05 | 0.00 | 70 | 1020.6 |
| 20260831141546 | 24 | 286 | 0.0 | 6.4 | 0.00 | 0.05 | 0.00 | 70 | 1020.5 |
| 20260831141024 | 23 | 0 | 0.0 | 8.0 | 0.00 | 0.05 | 0.00 | 71 | 1020.5 |
| 20260831140528 | 23 | 0 | 1.6 | 8.0 | 0.00 | 0.05 | 0.00 | 72 | 1020.6 |
| 20260831140043 | 23 | 138 | 0.0 | 6.4 | 0.00 | 0.05 | 0.00 | 75 | 1020.4 |
| 20260831135523 | 23 | 0 | 0.0 | 6.4 | 0.00 | 0.05 | 0.00 | 74 | 1020.4 |
| 20260831135023 | 23 | 326 | 1.6 | 6.4 | 0.00 | 0.05 | 0.00 | 76 | 1020.4 |
| 20260831134553 | 22 | 346 | 1.6 | 6.4 | 0.00 | 0.05 | 0.00 | 78 | 1020.3 |
| 20260831134025 | 22 | 39 | 1.6 | 4.8 | 0.00 | 0.05 | 0.00 | 80 | 1020.2 |
| 20260831133532 | 22 | 172 | 0.0 | 3.2 | 0.00 | 0.05 | 0.00 | 82 | 1020.2 |
| 20260831133046 | 22 | 226 | 0.0 | 3.2 | 0.00 | 0.05 | 0.00 | 82 | 1020.1 |
| 20260831132530 | 22 | 0 | 0.0 | 6.4 | 0.00 | 0.05 | 0.00 | 84 | 1020.2 |
| 20260831132026 | 21 | 0 | 0.0 | 6.4 | 0.00 | 0.05 | 0.00 | 85 | 1020.2 |
| 20260831131546 | 21 | 333 | 0.0 | 4.8 | 0.00 | 0.05 | 0.00 | 87 | 1020.2 |
| 20260831131028 | 21 | 41 | 0.0 | 4.8 | 0.00 | 0.05 | 0.00 | 89 | 1020.1 |
| 20260831130523 | 20 | 0 | 0.0 | 3.2 | 0.00 | 0.05 | 0.00 | 91 | 1020.2 |
| 20260831130047 | 20 | 5 | 0.0 | 3.2 | 0.00 | 0.05 | 0.00 | 92 | 1020.1 |
| 20260831125523 | 20 | 0 | 0.0 | 0.0 | 0.00 | 0.05 | 0.00 | 93 | 1020.2 |
| 20260831125022 | 19 | 0 | 0.0 | 0.0 | 0.00 | 0.05 | 0.00 | 94 | 1020.2 |
| 20260831124547 | 19 | 0 | 0.0 | 0.0 | 0.00 | 0.05 | 0.00 | 94 | 1020.3 |
| 20260831124029 | 18 | 0 | 0.0 | 0.0 | 0.00 | 0.05 | 0.00 | 94 | 1020.2 |
| 20260831123524 | 18 | 0 | 0.0 | 0.0 | 0.00 | 0.05 | 0.00 | 94 | 1020.2 |